sensor_id;sensor_type;location;lat;lon;timestamp;P1;durP1;ratioP1;P2;durP2;ratioP2
5977;SDS011;3015;51.390;12.256;2022-12-05T00:00:32;102.23;;;50.67;;
5977;SDS011;3015;51.390;12.256;2022-12-05T00:03:02;119.05;;;57.83;;
5977;SDS011;3015;51.390;12.256;2022-12-05T00:05:28;123.65;;;58.63;;
5977;SDS011;3015;51.390;12.256;2022-12-05T00:07:54;119.87;;;53.47;;
5977;SDS011;3015;51.390;12.256;2022-12-05T00:10:20;122.33;;;55.83;;
5977;SDS011;3015;51.390;12.256;2022-12-05T00:12:46;109.28;;;54.90;;
5977;SDS011;3015;51.390;12.256;2022-12-05T00:15:11;105.70;;;54.70;;
5977;SDS011;3015;51.390;12.256;2022-12-05T00:17:38;108.83;;;52.30;;
5977;SDS011;3015;51.390;12.256;2022-12-05T00:20:06;112.95;;;53.90;;
5977;SDS011;3015;51.390;12.256;2022-12-05T00:22:36;118.80;;;55.50;;
5977;SDS011;3015;51.390;12.256;2022-12-05T00:25:03;104.53;;;54.13;;
5977;SDS011;3015;51.390;12.256;2022-12-05T00:27:32;100.80;;;50.88;;
5977;SDS011;3015;51.390;12.256;2022-12-05T00:29:58;107.63;;;52.47;;
5977;SDS011;3015;51.390;12.256;2022-12-05T00:32:27;104.70;;;54.70;;
5977;SDS011;3015;51.390;12.256;2022-12-05T00:34:53;95.63;;;49.88;;
5977;SDS011;3015;51.390;12.256;2022-12-05T00:37:19;103.07;;;52.37;;
5977;SDS011;3015;51.390;12.256;2022-12-05T00:39:45;96.60;;;48.00;;
5977;SDS011;3015;51.390;12.256;2022-12-05T00:42:11;95.50;;;50.43;;
5977;SDS011;3015;51.390;12.256;2022-12-05T00:44:36;106.60;;;51.30;;
5977;SDS011;3015;51.390;12.256;2022-12-05T00:47:02;97.47;;;48.40;;
5977;SDS011;3015;51.390;12.256;2022-12-05T00:49:27;94.03;;;49.80;;
5977;SDS011;3015;51.390;12.256;2022-12-05T00:51:53;106.93;;;50.30;;
5977;SDS011;3015;51.390;12.256;2022-12-05T00:54:19;82.83;;;46.97;;
5977;SDS011;3015;51.390;12.256;2022-12-05T00:56:44;102.43;;;50.10;;
5977;SDS011;3015;51.390;12.256;2022-12-05T00:59:17;99.17;;;47.77;;
5977;SDS011;3015;51.390;12.256;2022-12-05T01:01:44;116.45;;;51.53;;
5977;SDS011;3015;51.390;12.256;2022-12-05T01:04:12;78.22;;;45.05;;
5977;SDS011;3015;51.390;12.256;2022-12-05T01:06:40;100.72;;;51.72;;
5977;SDS011;3015;51.390;12.256;2022-12-05T01:09:06;96.25;;;51.10;;
5977;SDS011;3015;51.390;12.256;2022-12-05T01:11:35;106.30;;;52.35;;
5977;SDS011;3015;51.390;12.256;2022-12-05T01:14:01;106.73;;;50.17;;
5977;SDS011;3015;51.390;12.256;2022-12-05T01:16:31;104.43;;;50.47;;
5977;SDS011;3015;51.390;12.256;2022-12-05T01:18:59;106.90;;;50.92;;
5977;SDS011;3015;51.390;12.256;2022-12-05T01:21:28;105.72;;;49.95;;
5977;SDS011;3015;51.390;12.256;2022-12-05T01:23:54;104.57;;;50.80;;
5977;SDS011;3015;51.390;12.256;2022-12-05T01:26:20;118.97;;;55.83;;
5977;SDS011;3015;51.390;12.256;2022-12-05T01:28:47;112.80;;;51.40;;
5977;SDS011;3015;51.390;12.256;2022-12-05T01:33:46;103.55;;;51.58;;
5977;SDS011;3015;51.390;12.256;2022-12-05T01:36:12;119.70;;;55.13;;
5977;SDS011;3015;51.390;12.256;2022-12-05T01:38:38;93.20;;;48.67;;
5977;SDS011;3015;51.390;12.256;2022-12-05T01:41:05;105.82;;;50.47;;
5977;SDS011;3015;51.390;12.256;2022-12-05T01:43:32;122.05;;;53.42;;
5977;SDS011;3015;51.390;12.256;2022-12-05T01:46:16;119.57;;;51.15;;
5977;SDS011;3015;51.390;12.256;2022-12-05T01:48:42;80.50;;;45.10;;
5977;SDS011;3015;51.390;12.256;2022-12-05T01:51:08;101.47;;;48.63;;
5977;SDS011;3015;51.390;12.256;2022-12-05T01:53:34;98.90;;;50.67;;
5977;SDS011;3015;51.390;12.256;2022-12-05T01:56:00;97.13;;;49.90;;
5977;SDS011;3015;51.390;12.256;2022-12-05T01:58:27;117.72;;;56.08;;
5977;SDS011;3015;51.390;12.256;2022-12-05T02:00:56;80.03;;;46.10;;
5977;SDS011;3015;51.390;12.256;2022-12-05T02:03:22;97.20;;;48.30;;
5977;SDS011;3015;51.390;12.256;2022-12-05T02:05:49;97.87;;;47.77;;
5977;SDS011;3015;51.390;12.256;2022-12-05T02:08:17;98.18;;;50.58;;
5977;SDS011;3015;51.390;12.256;2022-12-05T02:10:47;85.23;;;50.10;;
5977;SDS011;3015;51.390;12.256;2022-12-05T02:13:25;116.65;;;51.08;;
5977;SDS011;3015;51.390;12.256;2022-12-05T02:38:01;101.47;;;47.17;;
5977;SDS011;3015;51.390;12.256;2022-12-05T02:41:04;111.43;;;50.05;;
5977;SDS011;3015;51.390;12.256;2022-12-05T02:46:28;101.13;;;48.38;;
5977;SDS011;3015;51.390;12.256;2022-12-05T02:48:58;87.95;;;46.88;;
5977;SDS011;3015;51.390;12.256;2022-12-05T02:51:28;74.22;;;43.50;;
5977;SDS011;3015;51.390;12.256;2022-12-05T02:53:58;93.75;;;46.67;;
5977;SDS011;3015;51.390;12.256;2022-12-05T02:56:28;89.72;;;44.53;;
5977;SDS011;3015;51.390;12.256;2022-12-05T02:58:56;80.05;;;42.20;;
5977;SDS011;3015;51.390;12.256;2022-12-05T03:01:22;75.13;;;43.70;;
5977;SDS011;3015;51.390;12.256;2022-12-05T03:03:51;88.28;;;46.60;;
5977;SDS011;3015;51.390;12.256;2022-12-05T03:06:23;89.70;;;45.33;;
5977;SDS011;3015;51.390;12.256;2022-12-05T03:11:22;76.90;;;42.33;;
5977;SDS011;3015;51.390;12.256;2022-12-05T03:13:49;88.47;;;44.42;;
5977;SDS011;3015;51.390;12.256;2022-12-05T03:16:19;76.95;;;42.72;;
5977;SDS011;3015;51.390;12.256;2022-12-05T03:18:54;73.88;;;40.75;;
5977;SDS011;3015;51.390;12.256;2022-12-05T03:24:07;87.72;;;44.15;;
5977;SDS011;3015;51.390;12.256;2022-12-05T03:29:21;78.78;;;40.75;;
5977;SDS011;3015;51.390;12.256;2022-12-05T03:32:05;76.80;;;41.30;;
5977;SDS011;3015;51.390;12.256;2022-12-05T03:40:54;67.13;;;37.85;;
5977;SDS011;3015;51.390;12.256;2022-12-05T03:46:02;63.15;;;37.95;;
5977;SDS011;3015;51.390;12.256;2022-12-05T03:48:33;77.57;;;41.00;;
5977;SDS011;3015;51.390;12.256;2022-12-05T03:51:22;76.68;;;38.85;;
5977;SDS011;3015;51.390;12.256;2022-12-05T03:53:55;78.63;;;43.33;;
5977;SDS011;3015;51.390;12.256;2022-12-05T03:56:30;72.32;;;38.90;;
5977;SDS011;3015;51.390;12.256;2022-12-05T03:59:02;87.75;;;40.47;;
5977;SDS011;3015;51.390;12.256;2022-12-05T04:01:50;74.07;;;37.78;;
5977;SDS011;3015;51.390;12.256;2022-12-05T04:04:27;80.60;;;43.65;;
5977;SDS011;3015;51.390;12.256;2022-12-05T04:06:59;68.38;;;37.25;;
5977;SDS011;3015;51.390;12.256;2022-12-05T04:09:29;58.35;;;38.00;;
5977;SDS011;3015;51.390;12.256;2022-12-05T04:12:04;72.85;;;38.65;;
5977;SDS011;3015;51.390;12.256;2022-12-05T04:14:38;72.25;;;41.17;;
5977;SDS011;3015;51.390;12.256;2022-12-05T04:17:15;65.15;;;40.83;;
5977;SDS011;3015;51.390;12.256;2022-12-05T04:20:24;59.67;;;37.53;;
5977;SDS011;3015;51.390;12.256;2022-12-05T04:23:09;79.88;;;41.30;;
5977;SDS011;3015;51.390;12.256;2022-12-05T04:25:36;72.27;;;37.93;;
5977;SDS011;3015;51.390;12.256;2022-12-05T04:28:24;73.88;;;40.10;;
5977;SDS011;3015;51.390;12.256;2022-12-05T04:31:07;69.93;;;38.40;;
5977;SDS011;3015;51.390;12.256;2022-12-05T04:33:39;67.93;;;38.90;;
5977;SDS011;3015;51.390;12.256;2022-12-05T04:36:15;66.00;;;38.38;;
5977;SDS011;3015;51.390;12.256;2022-12-05T04:39:01;67.68;;;36.20;;
5977;SDS011;3015;51.390;12.256;2022-12-05T04:41:35;58.88;;;34.58;;
5977;SDS011;3015;51.390;12.256;2022-12-05T04:44:26;57.08;;;35.67;;
5977;SDS011;3015;51.390;12.256;2022-12-05T04:46:56;55.85;;;34.30;;
5977;SDS011;3015;51.390;12.256;2022-12-05T04:49:27;71.38;;;39.20;;
5977;SDS011;3015;51.390;12.256;2022-12-05T04:51:56;75.93;;;41.17;;
5977;SDS011;3015;51.390;12.256;2022-12-05T04:54:29;77.55;;;40.30;;
5977;SDS011;3015;51.390;12.256;2022-12-05T04:57:04;69.10;;;40.60;;
5977;SDS011;3015;51.390;12.256;2022-12-05T04:59:36;63.13;;;36.80;;
5977;SDS011;3015;51.390;12.256;2022-12-05T05:02:06;68.30;;;39.67;;
5977;SDS011;3015;51.390;12.256;2022-12-05T05:04:44;60.22;;;35.40;;
5977;SDS011;3015;51.390;12.256;2022-12-05T05:07:12;67.13;;;40.22;;
5977;SDS011;3015;51.390;12.256;2022-12-05T05:09:39;63.58;;;39.33;;
5977;SDS011;3015;51.390;12.256;2022-12-05T05:12:05;65.72;;;37.08;;
5977;SDS011;3015;51.390;12.256;2022-12-05T05:14:31;62.90;;;37.40;;
5977;SDS011;3015;51.390;12.256;2022-12-05T05:16:57;68.20;;;39.20;;
5977;SDS011;3015;51.390;12.256;2022-12-05T05:19:23;70.80;;;40.67;;
5977;SDS011;3015;51.390;12.256;2022-12-05T05:21:49;64.00;;;36.90;;
5977;SDS011;3015;51.390;12.256;2022-12-05T05:24:15;64.10;;;39.05;;
5977;SDS011;3015;51.390;12.256;2022-12-05T05:26:43;62.60;;;40.47;;
5977;SDS011;3015;51.390;12.256;2022-12-05T05:29:10;59.88;;;38.35;;
5977;SDS011;3015;51.390;12.256;2022-12-05T05:31:37;55.70;;;34.45;;
5977;SDS011;3015;51.390;12.256;2022-12-05T05:34:04;72.93;;;37.67;;
5977;SDS011;3015;51.390;12.256;2022-12-05T05:36:29;62.53;;;36.50;;
5977;SDS011;3015;51.390;12.256;2022-12-05T05:38:56;68.25;;;38.15;;
5977;SDS011;3015;51.390;12.256;2022-12-05T05:41:25;64.90;;;39.72;;
5977;SDS011;3015;51.390;12.256;2022-12-05T05:43:56;73.30;;;39.42;;
5977;SDS011;3015;51.390;12.256;2022-12-05T05:46:23;76.37;;;40.40;;
5977;SDS011;3015;51.390;12.256;2022-12-05T05:48:51;73.95;;;38.95;;
5977;SDS011;3015;51.390;12.256;2022-12-05T05:51:17;49.47;;;33.30;;
5977;SDS011;3015;51.390;12.256;2022-12-05T05:53:44;61.80;;;35.90;;
5977;SDS011;3015;51.390;12.256;2022-12-05T05:56:11;67.30;;;38.60;;
5977;SDS011;3015;51.390;12.256;2022-12-05T05:58:41;71.75;;;36.70;;
5977;SDS011;3015;51.390;12.256;2022-12-05T06:01:18;70.47;;;39.70;;
5977;SDS011;3015;51.390;12.256;2022-12-05T06:03:46;62.30;;;37.60;;
5977;SDS011;3015;51.390;12.256;2022-12-05T06:06:13;67.95;;;35.42;;
5977;SDS011;3015;51.390;12.256;2022-12-05T06:08:40;52.72;;;33.05;;
5977;SDS011;3015;51.390;12.256;2022-12-05T06:11:08;55.42;;;33.60;;
5977;SDS011;3015;51.390;12.256;2022-12-05T06:13:45;59.60;;;36.35;;
5977;SDS011;3015;51.390;12.256;2022-12-05T06:16:11;54.30;;;34.40;;
5977;SDS011;3015;51.390;12.256;2022-12-05T06:18:39;60.78;;;34.85;;
5977;SDS011;3015;51.390;12.256;2022-12-05T06:21:05;52.60;;;32.58;;
5977;SDS011;3015;51.390;12.256;2022-12-05T06:23:33;54.50;;;33.40;;
5977;SDS011;3015;51.390;12.256;2022-12-05T06:25:59;54.70;;;34.83;;
5977;SDS011;3015;51.390;12.256;2022-12-05T06:28:25;55.23;;;34.47;;
5977;SDS011;3015;51.390;12.256;2022-12-05T06:30:51;52.22;;;33.33;;
5977;SDS011;3015;51.390;12.256;2022-12-05T06:33:17;53.60;;;31.67;;
5977;SDS011;3015;51.390;12.256;2022-12-05T06:35:43;49.53;;;29.80;;
5977;SDS011;3015;51.390;12.256;2022-12-05T06:38:09;56.70;;;33.87;;
5977;SDS011;3015;51.390;12.256;2022-12-05T06:40:39;46.97;;;30.57;;
5977;SDS011;3015;51.390;12.256;2022-12-05T06:43:05;51.20;;;32.40;;
5977;SDS011;3015;51.390;12.256;2022-12-05T06:45:31;45.90;;;30.50;;
5977;SDS011;3015;51.390;12.256;2022-12-05T06:47:57;48.50;;;31.40;;
5977;SDS011;3015;51.390;12.256;2022-12-05T06:50:22;50.17;;;30.30;;
5977;SDS011;3015;51.390;12.256;2022-12-05T06:52:49;43.47;;;28.97;;
5977;SDS011;3015;51.390;12.256;2022-12-05T06:55:15;49.22;;;30.98;;
5977;SDS011;3015;51.390;12.256;2022-12-05T06:57:41;43.93;;;29.10;;
5977;SDS011;3015;51.390;12.256;2022-12-05T07:00:07;48.60;;;29.00;;
5977;SDS011;3015;51.390;12.256;2022-12-05T07:02:52;53.20;;;32.20;;
5977;SDS011;3015;51.390;12.256;2022-12-05T07:05:17;52.00;;;33.28;;
5977;SDS011;3015;51.390;12.256;2022-12-05T07:07:43;49.23;;;28.77;;
5977;SDS011;3015;51.390;12.256;2022-12-05T07:10:09;42.87;;;30.60;;
5977;SDS011;3015;51.390;12.256;2022-12-05T07:12:34;51.23;;;31.37;;
5977;SDS011;3015;51.390;12.256;2022-12-05T07:15:00;52.77;;;31.90;;
5977;SDS011;3015;51.390;12.256;2022-12-05T07:17:26;48.17;;;31.40;;
5977;SDS011;3015;51.390;12.256;2022-12-05T07:19:52;61.37;;;31.43;;
5977;SDS011;3015;51.390;12.256;2022-12-05T07:22:18;49.57;;;31.93;;
5977;SDS011;3015;51.390;12.256;2022-12-05T07:24:45;60.25;;;34.05;;
5977;SDS011;3015;51.390;12.256;2022-12-05T07:27:11;50.15;;;30.73;;
5977;SDS011;3015;51.390;12.256;2022-12-05T07:29:38;44.17;;;30.73;;
5977;SDS011;3015;51.390;12.256;2022-12-05T07:32:04;50.93;;;31.80;;
5977;SDS011;3015;51.390;12.256;2022-12-05T07:34:30;40.63;;;27.90;;
5977;SDS011;3015;51.390;12.256;2022-12-05T07:36:55;59.60;;;32.17;;
5977;SDS011;3015;51.390;12.256;2022-12-05T07:39:21;42.60;;;27.63;;
5977;SDS011;3015;51.390;12.256;2022-12-05T07:41:47;48.63;;;29.53;;
5977;SDS011;3015;51.390;12.256;2022-12-05T07:44:12;55.10;;;31.03;;
5977;SDS011;3015;51.390;12.256;2022-12-05T07:46:38;43.03;;;28.83;;
5977;SDS011;3015;51.390;12.256;2022-12-05T07:49:04;45.45;;;30.08;;
5977;SDS011;3015;51.390;12.256;2022-12-05T07:51:31;71.60;;;36.00;;
5977;SDS011;3015;51.390;12.256;2022-12-05T07:53:57;58.03;;;32.85;;
5977;SDS011;3015;51.390;12.256;2022-12-05T07:56:24;54.30;;;32.47;;
5977;SDS011;3015;51.390;12.256;2022-12-05T07:58:50;66.97;;;35.00;;
5977;SDS011;3015;51.390;12.256;2022-12-05T08:01:20;61.45;;;33.75;;
5977;SDS011;3015;51.390;12.256;2022-12-05T08:03:47;57.88;;;30.63;;
5977;SDS011;3015;51.390;12.256;2022-12-05T08:06:18;59.30;;;30.85;;
5977;SDS011;3015;51.390;12.256;2022-12-05T08:08:45;62.58;;;35.20;;
5977;SDS011;3015;51.390;12.256;2022-12-05T08:11:16;83.95;;;37.33;;
5977;SDS011;3015;51.390;12.256;2022-12-05T08:13:43;64.75;;;32.75;;
5977;SDS011;3015;51.390;12.256;2022-12-05T08:16:09;60.15;;;34.25;;
5977;SDS011;3015;51.390;12.256;2022-12-05T08:18:40;84.18;;;34.75;;
5977;SDS011;3015;51.390;12.256;2022-12-05T08:21:07;73.53;;;34.13;;
5977;SDS011;3015;51.390;12.256;2022-12-05T08:23:35;81.63;;;37.83;;
5977;SDS011;3015;51.390;12.256;2022-12-05T08:26:06;98.32;;;41.13;;
5977;SDS011;3015;51.390;12.256;2022-12-05T08:28:33;65.85;;;32.95;;
5977;SDS011;3015;51.390;12.256;2022-12-05T08:31:03;59.28;;;31.92;;
5977;SDS011;3015;51.390;12.256;2022-12-05T08:36:46;71.88;;;32.78;;
5977;SDS011;3015;51.390;12.256;2022-12-05T08:39:13;57.90;;;30.30;;
5977;SDS011;3015;51.390;12.256;2022-12-05T08:41:44;54.17;;;30.65;;
5977;SDS011;3015;51.390;12.256;2022-12-05T08:44:11;54.75;;;30.00;;
5977;SDS011;3015;51.390;12.256;2022-12-05T08:46:40;43.88;;;26.60;;
5977;SDS011;3015;51.390;12.256;2022-12-05T08:49:06;49.28;;;26.92;;
5977;SDS011;3015;51.390;12.256;2022-12-05T08:51:33;46.33;;;24.33;;
5977;SDS011;3015;51.390;12.256;2022-12-05T08:54:02;39.78;;;24.73;;
5977;SDS011;3015;51.390;12.256;2022-12-05T08:56:28;56.03;;;26.05;;
5977;SDS011;3015;51.390;12.256;2022-12-05T08:58:55;48.20;;;24.50;;
5977;SDS011;3015;51.390;12.256;2022-12-05T09:01:20;45.17;;;24.92;;
5977;SDS011;3015;51.390;12.256;2022-12-05T09:03:47;51.20;;;25.90;;
5977;SDS011;3015;51.390;12.256;2022-12-05T09:06:14;61.17;;;27.60;;
5977;SDS011;3015;51.390;12.256;2022-12-05T09:08:40;40.42;;;26.00;;
5977;SDS011;3015;51.390;12.256;2022-12-05T09:11:07;39.65;;;26.17;;
5977;SDS011;3015;51.390;12.256;2022-12-05T09:13:35;39.97;;;24.25;;
5977;SDS011;3015;51.390;12.256;2022-12-05T09:16:08;38.95;;;23.25;;
5977;SDS011;3015;51.390;12.256;2022-12-05T09:18:44;42.63;;;23.08;;
5977;SDS011;3015;51.390;12.256;2022-12-05T09:21:11;52.97;;;22.80;;
5977;SDS011;3015;51.390;12.256;2022-12-05T09:23:42;34.30;;;22.20;;
5977;SDS011;3015;51.390;12.256;2022-12-05T09:26:09;38.53;;;24.08;;
5977;SDS011;3015;51.390;12.256;2022-12-05T09:28:37;50.25;;;28.10;;
5977;SDS011;3015;51.390;12.256;2022-12-05T09:31:05;34.87;;;24.07;;
5977;SDS011;3015;51.390;12.256;2022-12-05T09:33:33;49.70;;;23.48;;
5977;SDS011;3015;51.390;12.256;2022-12-05T09:36:03;37.60;;;23.40;;
5977;SDS011;3015;51.390;12.256;2022-12-05T09:38:35;39.00;;;21.45;;
5977;SDS011;3015;51.390;12.256;2022-12-05T09:47:16;40.05;;;23.60;;
5977;SDS011;3015;51.390;12.256;2022-12-05T09:50:02;34.70;;;22.52;;
5977;SDS011;3015;51.390;12.256;2022-12-05T09:56:01;33.25;;;21.25;;
5977;SDS011;3015;51.390;12.256;2022-12-05T09:58:26;42.05;;;24.08;;
5977;SDS011;3015;51.390;12.256;2022-12-05T10:06:32;39.55;;;22.67;;
5977;SDS011;3015;51.390;12.256;2022-12-05T10:12:09;38.25;;;23.27;;
5977;SDS011;3015;51.390;12.256;2022-12-05T10:17:29;31.08;;;22.35;;
5977;SDS011;3015;51.390;12.256;2022-12-05T10:20:12;39.72;;;23.83;;
5977;SDS011;3015;51.390;12.256;2022-12-05T10:22:46;35.97;;;24.45;;
5977;SDS011;3015;51.390;12.256;2022-12-05T10:25:17;32.75;;;22.23;;
5977;SDS011;3015;51.390;12.256;2022-12-05T10:27:49;33.75;;;22.02;;
5977;SDS011;3015;51.390;12.256;2022-12-05T10:35:18;41.88;;;23.30;;
5977;SDS011;3015;51.390;12.256;2022-12-05T10:37:45;38.38;;;25.92;;
5977;SDS011;3015;51.390;12.256;2022-12-05T10:40:25;45.17;;;24.98;;
5977;SDS011;3015;51.390;12.256;2022-12-05T10:42:57;45.85;;;26.27;;
5977;SDS011;3015;51.390;12.256;2022-12-05T10:45:23;42.27;;;25.23;;
5977;SDS011;3015;51.390;12.256;2022-12-05T10:47:52;50.63;;;25.70;;
5977;SDS011;3015;51.390;12.256;2022-12-05T10:52:54;44.83;;;25.88;;
5977;SDS011;3015;51.390;12.256;2022-12-05T10:55:21;48.40;;;23.27;;
5977;SDS011;3015;51.390;12.256;2022-12-05T10:58:06;42.35;;;23.80;;
5977;SDS011;3015;51.390;12.256;2022-12-05T11:00:35;50.53;;;26.23;;
5977;SDS011;3015;51.390;12.256;2022-12-05T11:03:14;56.97;;;28.45;;
5977;SDS011;3015;51.390;12.256;2022-12-05T11:05:50;46.22;;;28.25;;
5977;SDS011;3015;51.390;12.256;2022-12-05T11:08:26;60.97;;;31.00;;
5977;SDS011;3015;51.390;12.256;2022-12-05T11:11:01;53.22;;;27.75;;
5977;SDS011;3015;51.390;12.256;2022-12-05T11:13:32;58.53;;;28.45;;
5977;SDS011;3015;51.390;12.256;2022-12-05T11:15:59;48.88;;;26.10;;
5977;SDS011;3015;51.390;12.256;2022-12-05T11:20:54;48.90;;;27.08;;
5977;SDS011;3015;51.390;12.256;2022-12-05T11:23:22;44.40;;;25.40;;
5977;SDS011;3015;51.390;12.256;2022-12-05T11:25:50;40.78;;;26.33;;
5977;SDS011;3015;51.390;12.256;2022-12-05T11:31:02;34.63;;;20.93;;
5977;SDS011;3015;51.390;12.256;2022-12-05T11:33:33;38.13;;;23.27;;
5977;SDS011;3015;51.390;12.256;2022-12-05T11:36:02;32.30;;;18.77;;
5977;SDS011;3015;51.390;12.256;2022-12-05T11:38:42;28.33;;;19.38;;
5977;SDS011;3015;51.390;12.256;2022-12-05T11:44:17;31.42;;;19.88;;
5977;SDS011;3015;51.390;12.256;2022-12-05T11:47:09;31.95;;;19.52;;
5977;SDS011;3015;51.390;12.256;2022-12-05T11:55:09;23.95;;;17.80;;
5977;SDS011;3015;51.390;12.256;2022-12-05T12:00:20;25.48;;;19.40;;
5977;SDS011;3015;51.390;12.256;2022-12-05T12:06:10;20.20;;;15.77;;
5977;SDS011;3015;51.390;12.256;2022-12-05T12:09:25;18.55;;;15.35;;
5977;SDS011;3015;51.390;12.256;2022-12-05T12:12:03;19.75;;;16.33;;
5977;SDS011;3015;51.390;12.256;2022-12-05T12:17:30;18.38;;;15.27;;
5977;SDS011;3015;51.390;12.256;2022-12-05T12:28:17;18.55;;;14.68;;
5977;SDS011;3015;51.390;12.256;2022-12-05T12:33:42;26.55;;;19.60;;
5977;SDS011;3015;51.390;12.256;2022-12-05T12:36:26;21.63;;;16.02;;
5977;SDS011;3015;51.390;12.256;2022-12-05T12:41:43;20.10;;;16.45;;
5977;SDS011;3015;51.390;12.256;2022-12-05T12:47:24;22.55;;;16.35;;
5977;SDS011;3015;51.390;12.256;2022-12-05T12:58:50;21.83;;;17.05;;
5977;SDS011;3015;51.390;12.256;2022-12-05T13:02:12;23.85;;;17.92;;
5977;SDS011;3015;51.390;12.256;2022-12-05T13:07:26;23.77;;;20.88;;
5977;SDS011;3015;51.390;12.256;2022-12-05T13:12:58;28.30;;;22.60;;
5977;SDS011;3015;51.390;12.256;2022-12-05T13:15:32;27.77;;;22.83;;
5977;SDS011;3015;51.390;12.256;2022-12-05T13:18:04;20.77;;;16.35;;
5977;SDS011;3015;51.390;12.256;2022-12-05T13:20:32;23.38;;;17.02;;
5977;SDS011;3015;51.390;12.256;2022-12-05T13:23:00;21.08;;;17.67;;
5977;SDS011;3015;51.390;12.256;2022-12-05T13:25:29;25.95;;;18.70;;
5977;SDS011;3015;51.390;12.256;2022-12-05T13:27:59;22.25;;;18.80;;
5977;SDS011;3015;51.390;12.256;2022-12-05T13:30:27;25.55;;;18.50;;
5977;SDS011;3015;51.390;12.256;2022-12-05T13:32:56;26.40;;;19.40;;
5977;SDS011;3015;51.390;12.256;2022-12-05T13:35:33;23.88;;;19.88;;
5977;SDS011;3015;51.390;12.256;2022-12-05T13:38:20;28.42;;;19.48;;
5977;SDS011;3015;51.390;12.256;2022-12-05T13:41:05;23.15;;;19.38;;
5977;SDS011;3015;51.390;12.256;2022-12-05T13:43:50;25.10;;;20.33;;
5977;SDS011;3015;51.390;12.256;2022-12-05T13:46:22;21.23;;;19.25;;
5977;SDS011;3015;51.390;12.256;2022-12-05T13:49:05;26.80;;;22.90;;
5977;SDS011;3015;51.390;12.256;2022-12-05T13:51:40;24.30;;;20.05;;
5977;SDS011;3015;51.390;12.256;2022-12-05T13:59:55;25.97;;;20.00;;
5977;SDS011;3015;51.390;12.256;2022-12-05T14:07:46;24.00;;;19.27;;
5977;SDS011;3015;51.390;12.256;2022-12-05T14:10:20;25.42;;;18.42;;
5977;SDS011;3015;51.390;12.256;2022-12-05T14:12:50;26.88;;;21.63;;
5977;SDS011;3015;51.390;12.256;2022-12-05T14:15:30;29.85;;;20.90;;
5977;SDS011;3015;51.390;12.256;2022-12-05T14:21:35;29.63;;;21.67;;
5977;SDS011;3015;51.390;12.256;2022-12-05T14:32:21;26.40;;;21.40;;
5977;SDS011;3015;51.390;12.256;2022-12-05T14:34:57;24.60;;;20.20;;
5977;SDS011;3015;51.390;12.256;2022-12-05T14:37:37;28.00;;;22.08;;
5977;SDS011;3015;51.390;12.256;2022-12-05T14:40:17;28.58;;;21.42;;
5977;SDS011;3015;51.390;12.256;2022-12-05T14:45:27;26.63;;;20.10;;
5977;SDS011;3015;51.390;12.256;2022-12-05T14:50:46;24.27;;;20.13;;
5977;SDS011;3015;51.390;12.256;2022-12-05T14:53:13;28.88;;;24.50;;
5977;SDS011;3015;51.390;12.256;2022-12-05T15:00:57;32.90;;;23.70;;
5977;SDS011;3015;51.390;12.256;2022-12-05T15:03:29;28.65;;;22.35;;
5977;SDS011;3015;51.390;12.256;2022-12-05T15:05:59;25.60;;;21.10;;
5977;SDS011;3015;51.390;12.256;2022-12-05T15:08:28;29.27;;;23.70;;
5977;SDS011;3015;51.390;12.256;2022-12-05T15:10:57;32.25;;;23.05;;
5977;SDS011;3015;51.390;12.256;2022-12-05T15:13:23;29.25;;;21.10;;
5977;SDS011;3015;51.390;12.256;2022-12-05T15:16:34;31.70;;;24.08;;
5977;SDS011;3015;51.390;12.256;2022-12-05T15:18:45;34.08;;;24.67;;
5977;SDS011;3015;51.390;12.256;2022-12-05T15:24:13;31.33;;;22.52;;
5977;SDS011;3015;51.390;12.256;2022-12-05T15:26:41;25.92;;;20.90;;
5977;SDS011;3015;51.390;12.256;2022-12-05T15:42:25;27.95;;;23.38;;
5977;SDS011;3015;51.390;12.256;2022-12-05T15:47:39;27.00;;;22.67;;
5977;SDS011;3015;51.390;12.256;2022-12-05T15:50:16;31.45;;;24.90;;
5977;SDS011;3015;51.390;12.256;2022-12-05T15:55:53;26.00;;;22.73;;
5977;SDS011;3015;51.390;12.256;2022-12-05T15:58:25;28.60;;;23.23;;
5977;SDS011;3015;51.390;12.256;2022-12-05T16:01:04;25.70;;;20.95;;
5977;SDS011;3015;51.390;12.256;2022-12-05T16:06:24;27.75;;;21.73;;
5977;SDS011;3015;51.390;12.256;2022-12-05T16:08:56;24.95;;;21.00;;
5977;SDS011;3015;51.390;12.256;2022-12-05T16:11:23;22.83;;;20.30;;
5977;SDS011;3015;51.390;12.256;2022-12-05T16:13:51;25.23;;;19.80;;
5977;SDS011;3015;51.390;12.256;2022-12-05T16:16:22;28.38;;;20.20;;
5977;SDS011;3015;51.390;12.256;2022-12-05T16:18:53;23.58;;;19.92;;
5977;SDS011;3015;51.390;12.256;2022-12-05T16:21:28;24.42;;;20.65;;
5977;SDS011;3015;51.390;12.256;2022-12-05T16:26:40;28.33;;;18.85;;
5977;SDS011;3015;51.390;12.256;2022-12-05T16:29:07;30.13;;;23.52;;
5977;SDS011;3015;51.390;12.256;2022-12-05T16:31:55;23.55;;;21.00;;
5977;SDS011;3015;51.390;12.256;2022-12-05T16:34:23;22.77;;;19.85;;
5977;SDS011;3015;51.390;12.256;2022-12-05T16:36:50;24.20;;;20.95;;
5977;SDS011;3015;51.390;12.256;2022-12-05T16:39:18;26.15;;;20.65;;
5977;SDS011;3015;51.390;12.256;2022-12-05T16:41:44;22.95;;;19.70;;
5977;SDS011;3015;51.390;12.256;2022-12-05T16:46:52;25.27;;;21.20;;
5977;SDS011;3015;51.390;12.256;2022-12-05T16:54:31;23.90;;;17.23;;
5977;SDS011;3015;51.390;12.256;2022-12-05T16:56:57;28.60;;;19.50;;
5977;SDS011;3015;51.390;12.256;2022-12-05T16:59:30;30.60;;;21.33;;
5977;SDS011;3015;51.390;12.256;2022-12-05T17:02:02;26.77;;;20.63;;
5977;SDS011;3015;51.390;12.256;2022-12-05T17:04:29;27.30;;;20.52;;
5977;SDS011;3015;51.390;12.256;2022-12-05T17:06:55;26.73;;;19.33;;
5977;SDS011;3015;51.390;12.256;2022-12-05T17:09:21;26.92;;;20.95;;
5977;SDS011;3015;51.390;12.256;2022-12-05T17:11:47;26.17;;;19.10;;
5977;SDS011;3015;51.390;12.256;2022-12-05T17:14:17;30.20;;;21.60;;
5977;SDS011;3015;51.390;12.256;2022-12-05T17:16:43;27.40;;;22.38;;
5977;SDS011;3015;51.390;12.256;2022-12-05T17:19:09;27.73;;;20.50;;
5977;SDS011;3015;51.390;12.256;2022-12-05T17:21:35;28.63;;;21.08;;
5977;SDS011;3015;51.390;12.256;2022-12-05T17:24:02;23.90;;;19.65;;
5977;SDS011;3015;51.390;12.256;2022-12-05T17:26:28;27.53;;;20.83;;
5977;SDS011;3015;51.390;12.256;2022-12-05T17:28:54;25.50;;;22.60;;
5977;SDS011;3015;51.390;12.256;2022-12-05T17:31:21;27.27;;;20.70;;
5977;SDS011;3015;51.390;12.256;2022-12-05T17:33:48;27.05;;;22.02;;
5977;SDS011;3015;51.390;12.256;2022-12-05T17:36:15;32.13;;;24.05;;
5977;SDS011;3015;51.390;12.256;2022-12-05T17:38:41;31.97;;;24.97;;
5977;SDS011;3015;51.390;12.256;2022-12-05T17:41:08;29.27;;;24.33;;
5977;SDS011;3015;51.390;12.256;2022-12-05T17:43:39;31.40;;;23.75;;
5977;SDS011;3015;51.390;12.256;2022-12-05T17:46:04;30.43;;;21.63;;
5977;SDS011;3015;51.390;12.256;2022-12-05T17:48:31;22.05;;;19.48;;
5977;SDS011;3015;51.390;12.256;2022-12-05T17:50:57;30.53;;;21.03;;
5977;SDS011;3015;51.390;12.256;2022-12-05T17:53:24;29.10;;;20.73;;
5977;SDS011;3015;51.390;12.256;2022-12-05T17:55:50;25.70;;;20.60;;
5977;SDS011;3015;51.390;12.256;2022-12-05T17:58:16;30.70;;;22.55;;
5977;SDS011;3015;51.390;12.256;2022-12-05T18:00:42;27.85;;;23.65;;
5977;SDS011;3015;51.390;12.256;2022-12-05T18:03:12;31.23;;;27.10;;
5977;SDS011;3015;51.390;12.256;2022-12-05T18:05:41;28.20;;;23.55;;
5977;SDS011;3015;51.390;12.256;2022-12-05T18:08:07;29.55;;;24.60;;
5977;SDS011;3015;51.390;12.256;2022-12-05T18:10:34;27.73;;;23.75;;